TimeMDT,TemperatureF,Dew PointF,Humidity,Sea Level PressureIn,VisibilityMPH,Wind Direction,Wind SpeedMPH,Gust SpeedMPH,PrecipitationIn,Events,Conditions,WindDirDegrees,DateUTC
12:53 AM,37.0,24.1,59,30.16,10.0,East,5.8,-,N/A,,Clear,80,2011-10-22 06:53:00
1:53 AM,33.1,25.0,72,30.17,9.0,East,5.8,-,0.00,Snow,Light Snow,90,2011-10-22 07:53:00
2:53 AM,33.1,24.1,70,30.18,10.0,ENE,4.6,-,0.00,,Clear,70,2011-10-22 08:53:00
3:53 AM,30.9,23.0,72,30.18,10.0,ENE,6.9,-,N/A,,Clear,70,2011-10-22 09:53:00
4:53 AM,30.9,23.0,72,30.19,10.0,ENE,5.8,-,0.00,,Clear,60,2011-10-22 10:53:00
5:53 AM,30.9,24.1,76,30.20,10.0,East,4.6,-,N/A,,Clear,80,2011-10-22 11:53:00
6:53 AM,30.9,25.0,79,30.25,10.0,ENE,4.6,-,0.00,,Clear,60,2011-10-22 12:53:00
7:53 AM,32.0,24.1,73,30.27,10.0,ENE,8.1,-,N/A,,Clear,70,2011-10-22 13:53:00
8:53 AM,39.9,27.0,60,30.27,10.0,East,3.5,-,N/A,,Clear,80,2011-10-22 14:53:00
9:53 AM,50.0,28.0,43,30.23,10.0,Calm,Calm,-,N/A,,Clear,0,2011-10-22 15:53:00
10:53 AM,57.9,25.0,28,30.21,10.0,Calm,Calm,-,N/A,,Clear,0,2011-10-22 16:53:00
11:53 AM,66.0,25.0,21,30.17,10.0,WNW,8.1,-,N/A,,Clear,300,2011-10-22 17:53:00
12:53 PM,68.0,24.1,19,30.14,10.0,WNW,15.0,21.9,N/A,,Clear,290,2011-10-22 18:53:00
1:53 PM,71.1,23.0,16,30.12,10.0,NNW,13.8,19.6,N/A,,Clear,340,2011-10-22 19:53:00
2:53 PM,70.0,21.9,16,30.11,10.0,WNW,13.8,21.9,N/A,,Clear,290,2011-10-22 20:53:00
3:53 PM,70.0,21.9,16,30.11,10.0,NNW,10.4,20.7,N/A,,Clear,330,2011-10-22 21:53:00
4:53 PM,70.0,23.0,17,30.11,10.0,NNW,10.4,-,N/A,,Clear,330,2011-10-22 22:53:00
5:53 PM,66.9,23.0,19,30.12,10.0,NW,11.5,-,N/A,,Clear,320,2011-10-22 23:53:00
6:53 PM,59.0,24.1,26,30.16,10.0,NNW,6.9,-,N/A,,Clear,330,2011-10-23 00:53:00
7:53 PM,52.0,26.1,37,30.20,10.0,Calm,Calm,-,N/A,,Clear,0,2011-10-23 01:53:00
8:53 PM,50.0,26.1,39,30.20,10.0,ENE,9.2,-,N/A,,Clear,70,2011-10-23 02:53:00
9:53 PM,42.1,27.0,55,30.21,10.0,ENE,4.6,-,N/A,,Clear,70,2011-10-23 03:53:00
10:53 PM,37.9,26.1,62,30.19,10.0,Calm,Calm,-,N/A,,Clear,0,2011-10-23 04:53:00
11:53 PM,36.0,26.1,67,30.17,10.0,NE,4.6,-,N/A,,Clear,50,2011-10-23 05:53:00